sensor_id;sensor_type;location;lat;lon;timestamp;P1;durP1;ratioP1;P2;durP2;ratioP2
59504;SDS011;45321;53.200;5.814;2022-09-12T00:01:57;15.52;;;14.13;;
59504;SDS011;45321;53.200;5.814;2022-09-12T00:04:23;15.27;;;13.88;;
59504;SDS011;45321;53.200;5.814;2022-09-12T00:06:52;15.63;;;14.30;;
59504;SDS011;45321;53.200;5.814;2022-09-12T00:09:17;15.27;;;13.85;;
59504;SDS011;45321;53.200;5.814;2022-09-12T00:11:44;17.98;;;14.93;;
59504;SDS011;45321;53.200;5.814;2022-09-12T00:14:12;15.40;;;14.00;;
59504;SDS011;45321;53.200;5.814;2022-09-12T00:16:39;17.05;;;15.45;;
59504;SDS011;45321;53.200;5.814;2022-09-12T00:19:06;15.63;;;14.23;;
59504;SDS011;45321;53.200;5.814;2022-09-12T00:21:33;16.75;;;15.25;;
59504;SDS011;45321;53.200;5.814;2022-09-12T00:24:00;16.17;;;14.77;;
59504;SDS011;45321;53.200;5.814;2022-09-12T00:26:26;15.70;;;14.20;;
59504;SDS011;45321;53.200;5.814;2022-09-12T00:28:52;16.80;;;15.20;;
59504;SDS011;45321;53.200;5.814;2022-09-12T00:31:19;16.00;;;14.57;;
59504;SDS011;45321;53.200;5.814;2022-09-12T00:33:51;16.05;;;14.55;;
59504;SDS011;45321;53.200;5.814;2022-09-12T00:36:19;16.80;;;15.20;;
59504;SDS011;45321;53.200;5.814;2022-09-12T00:38:47;16.38;;;14.68;;
59504;SDS011;45321;53.200;5.814;2022-09-12T00:43:46;17.70;;;14.90;;
59504;SDS011;45321;53.200;5.814;2022-09-12T00:47:18;16.85;;;15.25;;
59504;SDS011;45321;53.200;5.814;2022-09-12T00:49:33;16.88;;;15.20;;
59504;SDS011;45321;53.200;5.814;2022-09-12T00:57:26;16.48;;;14.32;;
59504;SDS011;45321;53.200;5.814;2022-09-12T01:00:13;16.85;;;15.25;;
59504;SDS011;45321;53.200;5.814;2022-09-12T01:02:41;15.98;;;14.38;;
59504;SDS011;45321;53.200;5.814;2022-09-12T01:05:09;16.35;;;14.95;;
59504;SDS011;45321;53.200;5.814;2022-09-12T01:07:37;16.52;;;14.93;;
59504;SDS011;45321;53.200;5.814;2022-09-12T01:10:05;15.68;;;14.18;;
59504;SDS011;45321;53.200;5.814;2022-09-12T01:12:32;16.38;;;14.88;;
59504;SDS011;45321;53.200;5.814;2022-09-12T01:14:59;16.65;;;15.05;;
59504;SDS011;45321;53.200;5.814;2022-09-12T01:17:30;15.60;;;14.07;;
59504;SDS011;45321;53.200;5.814;2022-09-12T01:34:40;14.52;;;13.23;;
59504;SDS011;45321;53.200;5.814;2022-09-12T01:37:28;15.63;;;14.15;;
59504;SDS011;45321;53.200;5.814;2022-09-12T01:40:02;16.35;;;14.82;;
59504;SDS011;45321;53.200;5.814;2022-09-12T01:42:40;15.07;;;13.70;;
59504;SDS011;45321;53.200;5.814;2022-09-12T01:45:35;14.77;;;13.27;;
59504;SDS011;45321;53.200;5.814;2022-09-12T01:48:18;14.52;;;13.13;;
59504;SDS011;45321;53.200;5.814;2022-09-12T01:50:53;15.43;;;14.02;;
59504;SDS011;45321;53.200;5.814;2022-09-12T01:53:27;15.50;;;14.15;;
59504;SDS011;45321;53.200;5.814;2022-09-12T01:56:01;15.27;;;13.38;;
59504;SDS011;45321;53.200;5.814;2022-09-12T01:58:49;14.65;;;13.25;;
59504;SDS011;45321;53.200;5.814;2022-09-12T02:01:38;14.82;;;13.52;;
59504;SDS011;45321;53.200;5.814;2022-09-12T02:04:20;14.80;;;13.43;;
59504;SDS011;45321;53.200;5.814;2022-09-12T02:07:01;14.73;;;13.35;;
59504;SDS011;45321;53.200;5.814;2022-09-12T02:12:57;15.20;;;13.60;;
59504;SDS011;45321;53.200;5.814;2022-09-12T02:15:37;15.57;;;14.07;;
59504;SDS011;45321;53.200;5.814;2022-09-12T02:18:07;14.52;;;13.30;;
59504;SDS011;45321;53.200;5.814;2022-09-12T02:20:38;14.63;;;13.27;;
59504;SDS011;45321;53.200;5.814;2022-09-12T02:23:08;15.43;;;14.10;;
59504;SDS011;45321;53.200;5.814;2022-09-12T02:25:37;14.25;;;13.05;;
59504;SDS011;45321;53.200;5.814;2022-09-12T02:28:08;14.75;;;13.45;;
59504;SDS011;45321;53.200;5.814;2022-09-12T02:30:49;14.73;;;13.40;;
59504;SDS011;45321;53.200;5.814;2022-09-12T02:36:14;15.98;;;14.38;;
59504;SDS011;45321;53.200;5.814;2022-09-12T02:38:57;15.75;;;14.35;;
59504;SDS011;45321;53.200;5.814;2022-09-12T02:41:24;15.32;;;13.98;;
59504;SDS011;45321;53.200;5.814;2022-09-12T02:43:50;15.48;;;13.98;;
59504;SDS011;45321;53.200;5.814;2022-09-12T02:46:19;15.85;;;14.35;;
59504;SDS011;45321;53.200;5.814;2022-09-12T02:48:49;16.38;;;14.68;;
59504;SDS011;45321;53.200;5.814;2022-09-12T02:51:15;16.65;;;15.05;;
59504;SDS011;45321;53.200;5.814;2022-09-12T02:53:41;17.70;;;15.95;;
59504;SDS011;45321;53.200;5.814;2022-09-12T02:56:10;16.80;;;15.25;;
59504;SDS011;45321;53.200;5.814;2022-09-12T02:58:41;16.73;;;15.02;;
59504;SDS011;45321;53.200;5.814;2022-09-12T03:01:19;18.05;;;16.17;;
59504;SDS011;45321;53.200;5.814;2022-09-12T03:07:06;18.98;;;17.08;;
59504;SDS011;45321;53.200;5.814;2022-09-12T03:12:41;17.75;;;16.05;;
59504;SDS011;45321;53.200;5.814;2022-09-12T03:23:18;18.65;;;16.85;;
59504;SDS011;45321;53.200;5.814;2022-09-12T03:26:04;17.83;;;16.15;;
59504;SDS011;45321;53.200;5.814;2022-09-12T03:28:33;18.55;;;16.75;;
59504;SDS011;45321;53.200;5.814;2022-09-12T03:31:00;17.45;;;15.75;;
59504;SDS011;45321;53.200;5.814;2022-09-12T03:33:36;18.50;;;16.63;;
59504;SDS011;45321;53.200;5.814;2022-09-12T03:36:02;17.23;;;15.63;;
59504;SDS011;45321;53.200;5.814;2022-09-12T03:38:28;17.40;;;15.75;;
59504;SDS011;45321;53.200;5.814;2022-09-12T03:40:53;17.58;;;15.95;;
59504;SDS011;45321;53.200;5.814;2022-09-12T03:43:19;18.17;;;16.27;;
59504;SDS011;45321;53.200;5.814;2022-09-12T03:45:46;18.48;;;16.67;;
59504;SDS011;45321;53.200;5.814;2022-09-12T03:48:16;17.48;;;15.77;;
59504;SDS011;45321;53.200;5.814;2022-09-12T03:50:41;18.27;;;16.55;;
59504;SDS011;45321;53.200;5.814;2022-09-12T03:53:07;17.02;;;15.43;;
59504;SDS011;45321;53.200;5.814;2022-09-12T03:55:33;18.25;;;16.45;;
59504;SDS011;45321;53.200;5.814;2022-09-12T03:57:59;18.10;;;15.60;;
59504;SDS011;45321;53.200;5.814;2022-09-12T04:00:24;17.27;;;15.68;;
59504;SDS011;45321;53.200;5.814;2022-09-12T04:02:54;18.50;;;16.50;;
59504;SDS011;45321;53.200;5.814;2022-09-12T04:05:21;18.70;;;16.90;;
59504;SDS011;45321;53.200;5.814;2022-09-12T04:07:47;19.27;;;17.05;;
59504;SDS011;45321;53.200;5.814;2022-09-12T04:10:13;19.02;;;17.23;;
59504;SDS011;45321;53.200;5.814;2022-09-12T04:12:39;19.20;;;17.13;;
59504;SDS011;45321;53.200;5.814;2022-09-12T04:15:05;19.80;;;17.40;;
59504;SDS011;45321;53.200;5.814;2022-09-12T04:17:32;20.00;;;17.83;;
59504;SDS011;45321;53.200;5.814;2022-09-12T04:19:59;19.92;;;18.13;;
59504;SDS011;45321;53.200;5.814;2022-09-12T04:22:25;19.80;;;17.80;;
59504;SDS011;45321;53.200;5.814;2022-09-12T04:24:51;20.60;;;18.42;;
59504;SDS011;45321;53.200;5.814;2022-09-12T04:27:16;19.65;;;17.65;;
59504;SDS011;45321;53.200;5.814;2022-09-12T04:29:42;22.02;;;17.95;;
59504;SDS011;45321;53.200;5.814;2022-09-12T04:32:08;20.67;;;18.55;;
59504;SDS011;45321;53.200;5.814;2022-09-12T04:34:34;21.02;;;18.92;;
59504;SDS011;45321;53.200;5.814;2022-09-12T04:36:59;20.75;;;18.65;;
59504;SDS011;45321;53.200;5.814;2022-09-12T04:39:25;20.88;;;18.70;;
59504;SDS011;45321;53.200;5.814;2022-09-12T04:41:51;22.63;;;19.83;;
59504;SDS011;45321;53.200;5.814;2022-09-12T04:44:17;21.75;;;19.38;;
59504;SDS011;45321;53.200;5.814;2022-09-12T04:46:44;22.75;;;20.25;;
59504;SDS011;45321;53.200;5.814;2022-09-12T04:49:11;22.27;;;19.98;;
59504;SDS011;45321;53.200;5.814;2022-09-12T04:51:39;20.83;;;18.63;;
59504;SDS011;45321;53.200;5.814;2022-09-12T04:54:07;22.60;;;20.23;;
59504;SDS011;45321;53.200;5.814;2022-09-12T04:56:39;22.67;;;20.40;;
59504;SDS011;45321;53.200;5.814;2022-09-12T04:59:07;22.05;;;19.80;;
59504;SDS011;45321;53.200;5.814;2022-09-12T05:01:33;23.42;;;20.10;;
59504;SDS011;45321;53.200;5.814;2022-09-12T05:04:00;22.80;;;20.50;;
59504;SDS011;45321;53.200;5.814;2022-09-12T05:06:27;23.92;;;21.50;;
59504;SDS011;45321;53.200;5.814;2022-09-12T05:08:54;25.48;;;22.38;;
59504;SDS011;45321;53.200;5.814;2022-09-12T05:11:22;23.42;;;21.02;;
59504;SDS011;45321;53.200;5.814;2022-09-12T05:13:49;25.65;;;22.95;;
59504;SDS011;45321;53.200;5.814;2022-09-12T05:16:16;24.65;;;21.35;;
59504;SDS011;45321;53.200;5.814;2022-09-12T05:18:42;24.65;;;22.20;;
59504;SDS011;45321;53.200;5.814;2022-09-12T05:21:11;24.35;;;21.85;;
59504;SDS011;45321;53.200;5.814;2022-09-12T05:23:38;26.50;;;21.83;;
59504;SDS011;45321;53.200;5.814;2022-09-12T05:26:05;24.60;;;22.00;;
59504;SDS011;45321;53.200;5.814;2022-09-12T05:28:32;24.55;;;21.80;;
59504;SDS011;45321;53.200;5.814;2022-09-12T05:33:31;23.88;;;21.45;;
59504;SDS011;45321;53.200;5.814;2022-09-12T05:35:58;26.67;;;22.38;;
59504;SDS011;45321;53.200;5.814;2022-09-12T05:38:24;24.27;;;21.83;;
59504;SDS011;45321;53.200;5.814;2022-09-12T05:40:53;24.55;;;21.80;;
59504;SDS011;45321;53.200;5.814;2022-09-12T05:43:30;24.60;;;21.77;;
59504;SDS011;45321;53.200;5.814;2022-09-12T05:46:01;23.63;;;21.13;;
59504;SDS011;45321;53.200;5.814;2022-09-12T05:48:28;23.75;;;21.23;;
59504;SDS011;45321;53.200;5.814;2022-09-12T05:51:01;24.75;;;22.33;;
59504;SDS011;45321;53.200;5.814;2022-09-12T05:53:29;25.00;;;22.10;;
59504;SDS011;45321;53.200;5.814;2022-09-12T05:56:05;25.83;;;22.50;;
59504;SDS011;45321;53.200;5.814;2022-09-12T05:58:36;23.50;;;21.10;;
59504;SDS011;45321;53.200;5.814;2022-09-12T06:01:05;23.73;;;21.42;;
59504;SDS011;45321;53.200;5.814;2022-09-12T06:03:36;23.42;;;21.13;;
59504;SDS011;45321;53.200;5.814;2022-09-12T06:06:05;23.10;;;20.67;;
59504;SDS011;45321;53.200;5.814;2022-09-12T06:08:31;25.63;;;21.15;;
59504;SDS011;45321;53.200;5.814;2022-09-12T06:10:59;24.05;;;21.55;;
59504;SDS011;45321;53.200;5.814;2022-09-12T06:13:26;23.90;;;21.40;;
59504;SDS011;45321;53.200;5.814;2022-09-12T06:15:52;24.08;;;20.20;;
59504;SDS011;45321;53.200;5.814;2022-09-12T06:18:18;22.80;;;20.35;;
59504;SDS011;45321;53.200;5.814;2022-09-12T06:20:45;23.23;;;20.92;;
59504;SDS011;45321;53.200;5.814;2022-09-12T06:23:10;23.60;;;21.05;;
59504;SDS011;45321;53.200;5.814;2022-09-12T06:25:36;22.65;;;20.45;;
59504;SDS011;45321;53.200;5.814;2022-09-12T06:28:02;23.58;;;21.17;;
59504;SDS011;45321;53.200;5.814;2022-09-12T06:30:28;22.77;;;20.35;;
59504;SDS011;45321;53.200;5.814;2022-09-12T06:32:54;22.50;;;20.23;;
59504;SDS011;45321;53.200;5.814;2022-09-12T06:35:21;22.23;;;20.02;;
59504;SDS011;45321;53.200;5.814;2022-09-12T06:37:47;23.08;;;20.58;;
59504;SDS011;45321;53.200;5.814;2022-09-12T06:40:13;23.60;;;21.20;;
59504;SDS011;45321;53.200;5.814;2022-09-12T06:42:39;24.88;;;21.70;;
59504;SDS011;45321;53.200;5.814;2022-09-12T06:45:05;23.23;;;20.30;;
59504;SDS011;45321;53.200;5.814;2022-09-12T06:47:31;26.80;;;20.92;;
59504;SDS011;45321;53.200;5.814;2022-09-12T06:49:57;23.75;;;21.25;;
59504;SDS011;45321;53.200;5.814;2022-09-12T06:52:23;24.30;;;21.50;;
59504;SDS011;45321;53.200;5.814;2022-09-12T06:54:48;24.35;;;20.92;;
59504;SDS011;45321;53.200;5.814;2022-09-12T06:57:18;23.13;;;20.73;;
59504;SDS011;45321;53.200;5.814;2022-09-12T06:59:48;22.98;;;20.65;;
59504;SDS011;45321;53.200;5.814;2022-09-12T07:02:15;22.65;;;20.13;;
59504;SDS011;45321;53.200;5.814;2022-09-12T07:04:40;23.58;;;20.60;;
59504;SDS011;45321;53.200;5.814;2022-09-12T07:07:06;25.20;;;20.77;;
59504;SDS011;45321;53.200;5.814;2022-09-12T07:09:32;24.40;;;20.50;;
59504;SDS011;45321;53.200;5.814;2022-09-12T07:11:57;23.65;;;21.08;;
59504;SDS011;45321;53.200;5.814;2022-09-12T07:14:24;23.15;;;20.73;;
59504;SDS011;45321;53.200;5.814;2022-09-12T07:16:50;23.65;;;21.15;;
59504;SDS011;45321;53.200;5.814;2022-09-12T07:19:16;26.02;;;23.27;;
59504;SDS011;45321;53.200;5.814;2022-09-12T07:21:41;24.58;;;22.05;;
59504;SDS011;45321;53.200;5.814;2022-09-12T07:24:08;24.67;;;21.85;;
59504;SDS011;45321;53.200;5.814;2022-09-12T07:26:34;26.40;;;23.33;;
59504;SDS011;45321;53.200;5.814;2022-09-12T07:29:00;28.67;;;23.27;;
59504;SDS011;45321;53.200;5.814;2022-09-12T07:31:27;28.75;;;25.27;;
59504;SDS011;45321;53.200;5.814;2022-09-12T07:33:53;27.52;;;22.70;;
59504;SDS011;45321;53.200;5.814;2022-09-12T07:36:20;27.95;;;24.95;;
59504;SDS011;45321;53.200;5.814;2022-09-12T07:38:47;29.40;;;24.60;;
59504;SDS011;45321;53.200;5.814;2022-09-12T07:41:20;32.53;;;27.30;;
59504;SDS011;45321;53.200;5.814;2022-09-12T07:43:47;34.53;;;26.88;;
59504;SDS011;45321;53.200;5.814;2022-09-12T07:46:17;33.42;;;27.63;;
59504;SDS011;45321;53.200;5.814;2022-09-12T07:48:43;33.38;;;27.75;;
59504;SDS011;45321;53.200;5.814;2022-09-12T07:51:13;35.17;;;27.77;;
59504;SDS011;45321;53.200;5.814;2022-09-12T07:53:40;33.35;;;27.95;;
59504;SDS011;45321;53.200;5.814;2022-09-12T07:56:08;31.13;;;27.33;;
59504;SDS011;45321;53.200;5.814;2022-09-12T07:58:35;37.83;;;28.67;;
59504;SDS011;45321;53.200;5.814;2022-09-12T08:03:31;38.28;;;29.35;;
59504;SDS011;45321;53.200;5.814;2022-09-12T08:08:33;35.80;;;29.73;;
59504;SDS011;45321;53.200;5.814;2022-09-12T08:10:59;36.28;;;28.92;;
59504;SDS011;45321;53.200;5.814;2022-09-12T08:13:27;37.60;;;29.40;;
59504;SDS011;45321;53.200;5.814;2022-09-12T08:15:57;37.92;;;29.92;;
59504;SDS011;45321;53.200;5.814;2022-09-12T08:18:24;38.33;;;29.27;;
59504;SDS011;45321;53.200;5.814;2022-09-12T08:20:55;42.40;;;29.75;;
59504;SDS011;45321;53.200;5.814;2022-09-12T08:23:25;36.63;;;29.20;;
59504;SDS011;45321;53.200;5.814;2022-09-12T08:25:56;37.90;;;29.60;;
59504;SDS011;45321;53.200;5.814;2022-09-12T08:28:24;34.80;;;29.45;;
59504;SDS011;45321;53.200;5.814;2022-09-12T08:30:50;38.17;;;29.83;;
59504;SDS011;45321;53.200;5.814;2022-09-12T08:33:17;35.05;;;29.10;;
59504;SDS011;45321;53.200;5.814;2022-09-12T08:35:42;40.90;;;29.73;;
59504;SDS011;45321;53.200;5.814;2022-09-12T08:38:08;39.97;;;29.52;;
59504;SDS011;45321;53.200;5.814;2022-09-12T08:40:40;38.15;;;28.23;;
59504;SDS011;45321;53.200;5.814;2022-09-12T08:43:26;37.75;;;29.13;;
59504;SDS011;45321;53.200;5.814;2022-09-12T08:46:14;35.58;;;28.50;;
59504;SDS011;45321;53.200;5.814;2022-09-12T08:48:47;39.53;;;31.20;;
59504;SDS011;45321;53.200;5.814;2022-09-12T08:51:14;40.38;;;30.70;;
59504;SDS011;45321;53.200;5.814;2022-09-12T08:53:43;40.38;;;31.45;;
59504;SDS011;45321;53.200;5.814;2022-09-12T08:56:11;43.22;;;35.17;;
59504;SDS011;45321;53.200;5.814;2022-09-12T08:58:41;48.42;;;38.17;;
59504;SDS011;45321;53.200;5.814;2022-09-12T09:01:23;51.75;;;39.03;;
59504;SDS011;45321;53.200;5.814;2022-09-12T09:20:41;47.13;;;36.10;;
59504;SDS011;45321;53.200;5.814;2022-09-12T09:23:21;47.55;;;37.25;;
59504;SDS011;45321;53.200;5.814;2022-09-12T09:28:29;45.63;;;34.30;;
59504;SDS011;45321;53.200;5.814;2022-09-12T09:31:02;44.28;;;31.67;;
59504;SDS011;45321;53.200;5.814;2022-09-12T09:33:31;43.35;;;31.48;;
59504;SDS011;45321;53.200;5.814;2022-09-12T09:38:50;35.80;;;26.70;;
59504;SDS011;45321;53.200;5.814;2022-09-12T09:44:33;30.13;;;22.17;;
59504;SDS011;45321;53.200;5.814;2022-09-12T09:47:00;28.70;;;21.35;;
59504;SDS011;45321;53.200;5.814;2022-09-12T09:49:26;29.13;;;21.45;;
59504;SDS011;45321;53.200;5.814;2022-09-12T09:51:55;27.73;;;20.05;;
59504;SDS011;45321;53.200;5.814;2022-09-12T09:54:35;26.90;;;20.00;;
59504;SDS011;45321;53.200;5.814;2022-09-12T10:00:22;23.02;;;18.05;;
59504;SDS011;45321;53.200;5.814;2022-09-12T10:07:59;24.33;;;17.77;;
59504;SDS011;45321;53.200;5.814;2022-09-12T10:10:27;23.05;;;16.77;;
59504;SDS011;45321;53.200;5.814;2022-09-12T10:13:12;24.73;;;19.10;;
59504;SDS011;45321;53.200;5.814;2022-09-12T10:15:56;22.38;;;17.33;;
59504;SDS011;45321;53.200;5.814;2022-09-12T10:18:31;24.10;;;17.80;;
59504;SDS011;45321;53.200;5.814;2022-09-12T10:21:10;23.08;;;18.02;;
59504;SDS011;45321;53.200;5.814;2022-09-12T10:23:39;22.02;;;17.13;;
59504;SDS011;45321;53.200;5.814;2022-09-12T10:26:14;22.95;;;17.42;;
59504;SDS011;45321;53.200;5.814;2022-09-12T10:28:46;25.10;;;17.40;;
59504;SDS011;45321;53.200;5.814;2022-09-12T10:31:21;21.08;;;16.77;;
59504;SDS011;45321;53.200;5.814;2022-09-12T10:33:52;25.05;;;18.25;;
59504;SDS011;45321;53.200;5.814;2022-09-12T10:36:21;22.67;;;16.65;;
59504;SDS011;45321;53.200;5.814;2022-09-12T10:38:51;18.50;;;15.85;;
59504;SDS011;45321;53.200;5.814;2022-09-12T10:41:19;20.73;;;15.35;;
59504;SDS011;45321;53.200;5.814;2022-09-12T10:43:46;22.38;;;16.08;;
59504;SDS011;45321;53.200;5.814;2022-09-12T10:46:19;22.90;;;17.02;;
59504;SDS011;45321;53.200;5.814;2022-09-12T10:49:11;21.45;;;16.13;;
59504;SDS011;45321;53.200;5.814;2022-09-12T10:51:46;22.42;;;15.70;;
59504;SDS011;45321;53.200;5.814;2022-09-12T10:54:13;18.83;;;15.23;;
59504;SDS011;45321;53.200;5.814;2022-09-12T11:05:07;13.98;;;10.00;;
59504;SDS011;45321;53.200;5.814;2022-09-12T11:10:59;18.63;;;10.40;;
59504;SDS011;45321;53.200;5.814;2022-09-12T11:15:48;14.15;;;10.80;;
59504;SDS011;45321;53.200;5.814;2022-09-12T11:20:56;11.32;;;9.30;;
59504;SDS011;45321;53.200;5.814;2022-09-12T11:26:12;10.93;;;8.10;;
59504;SDS011;45321;53.200;5.814;2022-09-12T11:28:56;13.07;;;8.77;;
59504;SDS011;45321;53.200;5.814;2022-09-12T11:42:46;8.75;;;7.63;;
59504;SDS011;45321;53.200;5.814;2022-09-12T11:47:54;11.15;;;9.13;;
59504;SDS011;45321;53.200;5.814;2022-09-12T11:50:26;9.02;;;7.80;;
59504;SDS011;45321;53.200;5.814;2022-09-12T11:52:59;10.05;;;8.65;;
59504;SDS011;45321;53.200;5.814;2022-09-12T11:55:38;10.45;;;7.97;;
59504;SDS011;45321;53.200;5.814;2022-09-12T11:58:15;9.85;;;7.43;;
59504;SDS011;45321;53.200;5.814;2022-09-12T12:00:43;9.23;;;7.97;;
59504;SDS011;45321;53.200;5.814;2022-09-12T12:03:24;9.20;;;7.32;;
59504;SDS011;45321;53.200;5.814;2022-09-12T12:08:21;7.57;;;6.57;;
59504;SDS011;45321;53.200;5.814;2022-09-12T12:10:50;8.85;;;7.97;;
59504;SDS011;45321;53.200;5.814;2022-09-12T12:21:47;9.88;;;6.50;;
59504;SDS011;45321;53.200;5.814;2022-09-12T12:26:42;10.77;;;8.32;;
59504;SDS011;45321;53.200;5.814;2022-09-12T12:34:35;11.65;;;9.43;;
59504;SDS011;45321;53.200;5.814;2022-09-12T12:44:56;11.17;;;9.23;;
59504;SDS011;45321;53.200;5.814;2022-09-12T12:47:27;13.48;;;9.48;;
59504;SDS011;45321;53.200;5.814;2022-09-12T12:50:13;6.53;;;5.63;;
59504;SDS011;45321;53.200;5.814;2022-09-12T12:52:58;6.65;;;5.75;;
59504;SDS011;45321;53.200;5.814;2022-09-12T12:55:30;8.63;;;5.20;;
59504;SDS011;45321;53.200;5.814;2022-09-12T12:58:00;7.78;;;5.05;;
59504;SDS011;45321;53.200;5.814;2022-09-12T13:00:37;6.63;;;4.18;;
59504;SDS011;45321;53.200;5.814;2022-09-12T13:05:39;6.63;;;4.15;;
59504;SDS011;45321;53.200;5.814;2022-09-12T13:08:09;6.50;;;4.47;;
59504;SDS011;45321;53.200;5.814;2022-09-12T13:10:48;7.30;;;4.88;;
59504;SDS011;45321;53.200;5.814;2022-09-12T13:13:24;5.20;;;4.47;;
59504;SDS011;45321;53.200;5.814;2022-09-12T13:16:10;6.00;;;4.78;;
59504;SDS011;45321;53.200;5.814;2022-09-12T13:18:53;7.18;;;4.65;;
59504;SDS011;45321;53.200;5.814;2022-09-12T13:21:21;5.78;;;4.38;;
59504;SDS011;45321;53.200;5.814;2022-09-12T13:24:01;5.55;;;4.32;;
59504;SDS011;45321;53.200;5.814;2022-09-12T13:26:41;7.47;;;4.40;;
59504;SDS011;45321;53.200;5.814;2022-09-12T13:31:41;5.65;;;4.40;;
59504;SDS011;45321;53.200;5.814;2022-09-12T13:34:23;6.47;;;4.80;;
59504;SDS011;45321;53.200;5.814;2022-09-12T13:39:45;5.40;;;4.00;;
59504;SDS011;45321;53.200;5.814;2022-09-12T13:45:02;6.80;;;5.77;;
59504;SDS011;45321;53.200;5.814;2022-09-12T13:47:55;6.68;;;5.75;;
59504;SDS011;45321;53.200;5.814;2022-09-12T13:51:06;9.38;;;6.72;;
59504;SDS011;45321;53.200;5.814;2022-09-12T13:53:14;8.32;;;7.45;;
59504;SDS011;45321;53.200;5.814;2022-09-12T13:55:47;11.05;;;9.80;;
59504;SDS011;45321;53.200;5.814;2022-09-12T14:01:04;9.18;;;7.20;;
59504;SDS011;45321;53.200;5.814;2022-09-12T14:03:38;9.00;;;7.97;;
59504;SDS011;45321;53.200;5.814;2022-09-12T14:06:24;10.98;;;8.60;;
59504;SDS011;45321;53.200;5.814;2022-09-12T14:08:51;9.82;;;7.85;;
59504;SDS011;45321;53.200;5.814;2022-09-12T14:11:28;11.73;;;8.68;;
59504;SDS011;45321;53.200;5.814;2022-09-12T14:13:55;8.80;;;7.45;;
59504;SDS011;45321;53.200;5.814;2022-09-12T14:16:21;14.95;;;9.35;;
59504;SDS011;45321;53.200;5.814;2022-09-12T14:18:51;8.40;;;7.60;;
59504;SDS011;45321;53.200;5.814;2022-09-12T14:24:00;7.63;;;6.82;;
59504;SDS011;45321;53.200;5.814;2022-09-12T14:26:29;12.07;;;8.90;;
59504;SDS011;45321;53.200;5.814;2022-09-12T14:28:58;10.25;;;8.73;;
59504;SDS011;45321;53.200;5.814;2022-09-12T14:31:29;10.60;;;8.25;;
59504;SDS011;45321;53.200;5.814;2022-09-12T14:34:07;9.98;;;8.13;;
59504;SDS011;45321;53.200;5.814;2022-09-12T14:36:39;9.65;;;8.50;;
59504;SDS011;45321;53.200;5.814;2022-09-12T14:39:15;11.88;;;8.50;;
59504;SDS011;45321;53.200;5.814;2022-09-12T14:41:41;8.70;;;7.03;;
59504;SDS011;45321;53.200;5.814;2022-09-12T14:47:17;12.23;;;8.45;;
59504;SDS011;45321;53.200;5.814;2022-09-12T14:49:45;10.32;;;8.02;;
59504;SDS011;45321;53.200;5.814;2022-09-12T14:52:21;12.02;;;8.10;;
59504;SDS011;45321;53.200;5.814;2022-09-12T14:57:33;10.85;;;8.38;;
59504;SDS011;45321;53.200;5.814;2022-09-12T15:02:38;11.43;;;8.57;;
59504;SDS011;45321;53.200;5.814;2022-09-12T15:08:13;12.23;;;8.65;;
59504;SDS011;45321;53.200;5.814;2022-09-12T15:10:25;12.23;;;8.07;;
59504;SDS011;45321;53.200;5.814;2022-09-12T15:13:09;12.32;;;8.60;;
59504;SDS011;45321;53.200;5.814;2022-09-12T15:15:53;9.27;;;7.97;;
59504;SDS011;45321;53.200;5.814;2022-09-12T15:18:21;11.00;;;8.80;;
59504;SDS011;45321;53.200;5.814;2022-09-12T15:20:50;11.52;;;8.52;;
59504;SDS011;45321;53.200;5.814;2022-09-12T15:23:43;11.35;;;9.35;;
59504;SDS011;45321;53.200;5.814;2022-09-12T15:26:12;14.30;;;9.02;;
59504;SDS011;45321;53.200;5.814;2022-09-12T15:28:43;8.48;;;7.57;;
59504;SDS011;45321;53.200;5.814;2022-09-12T15:31:14;9.90;;;8.90;;
59504;SDS011;45321;53.200;5.814;2022-09-12T15:33:48;13.35;;;8.82;;
59504;SDS011;45321;53.200;5.814;2022-09-12T15:36:15;11.18;;;8.52;;
59504;SDS011;45321;53.200;5.814;2022-09-12T15:38:43;9.98;;;6.95;;
59504;SDS011;45321;53.200;5.814;2022-09-12T15:41:10;8.57;;;7.72;;
59504;SDS011;45321;53.200;5.814;2022-09-12T15:43:42;10.82;;;9.48;;
59504;SDS011;45321;53.200;5.814;2022-09-12T15:46:09;9.07;;;6.90;;
59504;SDS011;45321;53.200;5.814;2022-09-12T15:48:37;10.52;;;7.60;;
59504;SDS011;45321;53.200;5.814;2022-09-12T15:51:03;7.93;;;7.13;;
59504;SDS011;45321;53.200;5.814;2022-09-12T15:53:29;8.45;;;7.50;;
59504;SDS011;45321;53.200;5.814;2022-09-12T15:55:55;11.23;;;7.53;;
59504;SDS011;45321;53.200;5.814;2022-09-12T15:58:21;9.60;;;7.65;;
59504;SDS011;45321;53.200;5.814;2022-09-12T16:00:47;8.35;;;7.38;;
59504;SDS011;45321;53.200;5.814;2022-09-12T16:03:19;9.23;;;7.78;;
59504;SDS011;45321;53.200;5.814;2022-09-12T16:05:49;15.02;;;9.30;;
59504;SDS011;45321;53.200;5.814;2022-09-12T16:08:20;11.20;;;8.10;;
59504;SDS011;45321;53.200;5.814;2022-09-12T16:10:46;9.07;;;6.70;;
59504;SDS011;45321;53.200;5.814;2022-09-12T16:13:16;9.88;;;7.18;;
59504;SDS011;45321;53.200;5.814;2022-09-12T16:15:42;9.35;;;8.35;;
59504;SDS011;45321;53.200;5.814;2022-09-12T16:18:08;7.72;;;6.93;;
59504;SDS011;45321;53.200;5.814;2022-09-12T16:20:33;11.43;;;8.57;;
59504;SDS011;45321;53.200;5.814;2022-09-12T16:22:59;9.98;;;8.95;;
59504;SDS011;45321;53.200;5.814;2022-09-12T16:25:25;9.82;;;7.80;;
59504;SDS011;45321;53.200;5.814;2022-09-12T16:27:51;9.95;;;8.10;;
59504;SDS011;45321;53.200;5.814;2022-09-12T16:30:16;9.45;;;7.90;;
59504;SDS011;45321;53.200;5.814;2022-09-12T16:32:42;8.82;;;7.78;;
59504;SDS011;45321;53.200;5.814;2022-09-12T16:35:08;7.70;;;6.90;;
59504;SDS011;45321;53.200;5.814;2022-09-12T16:37:34;8.30;;;7.13;;
59504;SDS011;45321;53.200;5.814;2022-09-12T16:40:00;10.48;;;7.60;;
59504;SDS011;45321;53.200;5.814;2022-09-12T16:42:26;9.70;;;7.70;;
59504;SDS011;45321;53.200;5.814;2022-09-12T16:44:52;7.57;;;6.53;;
59504;SDS011;45321;53.200;5.814;2022-09-12T16:47:18;8.07;;;7.38;;
59504;SDS011;45321;53.200;5.814;2022-09-12T16:49:44;8.45;;;7.03;;
59504;SDS011;45321;53.200;5.814;2022-09-12T16:52:09;8.02;;;7.20;;
59504;SDS011;45321;53.200;5.814;2022-09-12T16:54:36;8.75;;;7.85;;
59504;SDS011;45321;53.200;5.814;2022-09-12T16:57:02;8.98;;;7.70;;
59504;SDS011;45321;53.200;5.814;2022-09-12T16:59:29;8.98;;;7.00;;
59504;SDS011;45321;53.200;5.814;2022-09-12T17:01:55;7.57;;;6.78;;
59504;SDS011;45321;53.200;5.814;2022-09-12T17:04:20;9.05;;;7.22;;
59504;SDS011;45321;53.200;5.814;2022-09-12T17:06:46;10.25;;;8.55;;
59504;SDS011;45321;53.200;5.814;2022-09-12T17:09:12;8.95;;;7.15;;
59504;SDS011;45321;53.200;5.814;2022-09-12T17:11:43;8.25;;;7.15;;
59504;SDS011;45321;53.200;5.814;2022-09-12T17:14:11;10.15;;;7.13;;
59504;SDS011;45321;53.200;5.814;2022-09-12T17:16:37;8.80;;;8.00;;
59504;SDS011;45321;53.200;5.814;2022-09-12T17:19:05;9.15;;;7.80;;
59504;SDS011;45321;53.200;5.814;2022-09-12T17:21:31;11.30;;;8.18;;
59504;SDS011;45321;53.200;5.814;2022-09-12T17:23:57;11.05;;;7.82;;
59504;SDS011;45321;53.200;5.814;2022-09-12T17:26:23;8.57;;;7.80;;
59504;SDS011;45321;53.200;5.814;2022-09-12T17:28:49;8.82;;;7.93;;
59504;SDS011;45321;53.200;5.814;2022-09-12T17:31:15;8.32;;;7.53;;
59504;SDS011;45321;53.200;5.814;2022-09-12T17:33:41;9.68;;;8.32;;
59504;SDS011;45321;53.200;5.814;2022-09-12T17:36:11;11.65;;;7.40;;
59504;SDS011;45321;53.200;5.814;2022-09-12T17:38:39;9.32;;;7.55;;